createdAt,value
2023-03-05T00:01:41.580Z,22.23
2023-03-05T00:04:14.639Z,18.50
2023-03-05T00:06:42.830Z,23.50
2023-03-05T00:09:12.938Z,21.47
2023-03-05T00:11:41.227Z,14.80
2023-03-05T00:14:09.312Z,21.17
2023-03-05T00:16:37.546Z,23.37
2023-03-05T00:19:05.860Z,19.83
2023-03-05T00:21:37.668Z,20.43
2023-03-05T00:24:09.508Z,21.47
2023-03-05T00:26:40.687Z,22.20
2023-03-05T00:29:10.920Z,19.80
2023-03-05T00:31:39.702Z,22.73
2023-03-05T00:34:13.528Z,22.17
2023-03-05T00:36:42.768Z,20.23
2023-03-05T00:39:10.836Z,23.70
2023-03-05T00:41:40.461Z,18.60
2023-03-05T00:44:08.742Z,16.83
2023-03-05T00:46:37.628Z,20.20
2023-03-05T00:49:06.002Z,22.53
2023-03-05T00:51:34.198Z,20.20
2023-03-05T00:54:03.579Z,20.47
2023-03-05T00:56:31.689Z,17.20
2023-03-05T00:59:01.072Z,23.40
2023-03-05T01:01:29.460Z,17.30
2023-03-05T01:03:59.576Z,21.43
2023-03-05T01:06:28.204Z,25.73
2023-03-05T01:08:57.266Z,16.47
2023-03-05T01:11:25.366Z,25.37
2023-03-05T01:13:53.378Z,17.20
2023-03-05T01:16:23.108Z,15.43
2023-03-05T01:18:51.247Z,13.30
2023-03-05T01:21:19.280Z,13.37
2023-03-05T01:23:47.328Z,10.13
2023-03-05T01:26:15.356Z,12.83
2023-03-05T01:28:43.409Z,14.60
2023-03-05T01:31:12.440Z,13.77
2023-03-05T01:33:41.816Z,12.63
2023-03-05T01:36:13.497Z,17.03
2023-03-05T01:38:41.931Z,16.83
2023-03-05T01:41:10.999Z,13.93
2023-03-05T01:43:40.034Z,11.97
2023-03-05T01:46:28.904Z,18.07
2023-03-05T01:49:09.426Z,14.20
2023-03-05T01:51:43.751Z,14.13
2023-03-05T01:54:15.593Z,19.63
2023-03-05T01:56:44.976Z,15.23
2023-03-05T01:59:14.830Z,15.43
2023-03-05T02:01:49.086Z,12.87
2023-03-05T02:04:20.396Z,13.47
2023-03-05T02:06:49.778Z,12.57
2023-03-05T02:09:18.360Z,13.13
2023-03-05T02:11:46.838Z,12.63
2023-03-05T02:14:15.036Z,13.33
2023-03-05T02:16:44.238Z,10.97
2023-03-05T02:19:13.979Z,15.60
2023-03-05T02:21:46.055Z,12.93
2023-03-05T02:24:15.300Z,14.97
2023-03-05T02:26:44.804Z,10.00
2023-03-05T02:29:19.354Z,12.83
2023-03-05T02:31:47.755Z,15.07
2023-03-05T02:34:16.148Z,12.13
2023-03-05T02:36:46.712Z,12.00
2023-03-05T02:39:14.999Z,14.90
2023-03-05T02:41:43.741Z,14.90
2023-03-05T02:44:12.379Z,16.50
2023-03-05T02:46:40.389Z,14.30
2023-03-05T02:49:09.178Z,12.00
2023-03-05T02:51:37.550Z,12.03
2023-03-05T02:54:07.173Z,19.23
2023-03-05T02:56:35.377Z,16.00
2023-03-05T02:59:03.446Z,9.47
2023-03-05T03:01:31.591Z,15.70
2023-03-05T03:04:00.156Z,10.63
2023-03-05T03:06:28.219Z,13.53
2023-03-05T03:08:56.271Z,10.17
2023-03-05T03:11:25.786Z,12.03
2023-03-05T03:13:53.808Z,11.27
2023-03-05T03:16:21.884Z,15.20
2023-03-05T03:18:50.011Z,15.80
2023-03-05T03:21:21.066Z,16.67
2023-03-05T03:23:49.411Z,12.23
2023-03-05T03:26:17.793Z,12.83
2023-03-05T03:28:47.331Z,14.23
2023-03-05T03:31:15.803Z,11.70
2023-03-05T03:33:45.217Z,10.80
2023-03-05T03:36:15.445Z,11.97
2023-03-05T03:38:43.757Z,12.63
2023-03-05T03:41:11.820Z,13.80
2023-03-05T03:43:39.976Z,11.37
2023-03-05T03:46:10.223Z,13.10
2023-03-05T03:48:38.522Z,18.77
2023-03-05T03:51:08.557Z,15.50
2023-03-05T03:53:36.674Z,12.10
2023-03-05T03:56:05.536Z,12.90
2023-03-05T03:58:33.813Z,12.00
2023-03-05T04:01:02.086Z,15.67
2023-03-05T04:03:31.437Z,12.00
2023-03-05T04:05:59.503Z,13.33
2023-03-05T04:08:27.943Z,11.83
2023-03-05T04:10:56.039Z,12.10
2023-03-05T04:13:24.108Z,12.40
2023-03-05T04:15:52.451Z,12.37
2023-03-05T04:18:20.536Z,14.93
2023-03-05T04:20:50.073Z,10.80
2023-03-05T04:23:18.700Z,12.00
2023-03-05T04:25:46.984Z,9.80
2023-03-05T04:28:15.200Z,11.67
2023-03-05T04:30:43.630Z,11.90
2023-03-05T04:33:11.936Z,12.90
2023-03-05T04:35:40.068Z,14.07
2023-03-05T04:38:10.320Z,14.40
2023-03-05T04:40:38.586Z,13.67
2023-03-05T04:43:07.342Z,12.07
2023-03-05T04:45:37.143Z,16.13
2023-03-05T04:48:05.770Z,12.20
2023-03-05T04:50:34.108Z,11.10
2023-03-05T04:53:02.644Z,10.83
2023-03-05T04:55:32.049Z,14.40
2023-03-05T04:58:00.196Z,14.73
2023-03-05T05:00:28.297Z,12.60
2023-03-05T05:02:56.417Z,12.27
2023-03-05T05:05:29.369Z,14.97
2023-03-05T05:07:58.952Z,15.53
2023-03-05T05:10:27.815Z,13.20
2023-03-05T05:12:59.241Z,13.07
2023-03-05T05:15:28.490Z,11.90
2023-03-05T05:17:56.490Z,16.17
2023-03-05T05:20:24.549Z,15.07
2023-03-05T05:22:52.677Z,14.27
2023-03-05T05:25:20.776Z,17.40
2023-03-05T05:27:49.010Z,14.83
2023-03-05T05:30:42.565Z,19.57
2023-03-05T05:33:10.576Z,15.57
2023-03-05T05:35:41.102Z,13.00
2023-03-05T05:38:09.181Z,16.23
2023-03-05T05:41:02.006Z,15.13
2023-03-05T05:43:30.030Z,13.47
2023-03-05T05:46:02.073Z,14.30
2023-03-05T05:48:31.188Z,20.53
2023-03-05T05:50:59.552Z,15.07
2023-03-05T05:53:28.053Z,14.07
2023-03-05T05:55:56.143Z,12.57
2023-03-05T05:58:24.241Z,14.07
2023-03-05T06:00:52.433Z,13.07
2023-03-05T06:03:22.072Z,10.07
2023-03-05T06:05:51.750Z,15.03
2023-03-05T06:08:20.193Z,13.73
2023-03-05T06:10:56.108Z,16.20
2023-03-05T06:13:24.153Z,17.83
2023-03-05T06:16:03.654Z,14.00
2023-03-05T06:18:34.224Z,16.53
2023-03-05T06:21:05.366Z,16.57
2023-03-05T06:23:34.026Z,10.30
2023-03-05T06:26:04.356Z,14.70
2023-03-05T06:28:32.667Z,14.93
2023-03-05T06:31:02.414Z,13.77
2023-03-05T06:33:33.119Z,15.13
2023-03-05T06:36:03.414Z,11.07
2023-03-05T06:38:31.597Z,14.27
2023-03-05T06:41:02.833Z,11.90
2023-03-05T06:43:33.241Z,13.60
2023-03-05T06:46:05.841Z,15.20
2023-03-05T06:48:35.794Z,16.27
2023-03-05T06:51:04.421Z,12.73
2023-03-05T06:53:32.844Z,15.07
2023-03-05T06:56:05.922Z,19.23
2023-03-05T06:58:34.027Z,12.57
2023-03-05T07:01:02.291Z,11.80
2023-03-05T07:03:30.624Z,14.60
2023-03-05T07:06:00.041Z,17.13
2023-03-05T07:08:33.180Z,15.67
2023-03-05T07:11:01.624Z,17.00
2023-03-05T07:13:30.035Z,18.70
2023-03-05T07:15:58.203Z,14.50
2023-03-05T07:18:26.272Z,13.27
2023-03-05T07:20:55.439Z,14.93
2023-03-05T07:23:27.006Z,14.57
2023-03-05T07:25:55.333Z,12.60
2023-03-05T07:28:23.527Z,15.47
2023-03-05T07:30:58.221Z,18.50
2023-03-05T07:33:26.493Z,16.43
2023-03-05T07:35:54.740Z,16.73
2023-03-05T07:38:24.678Z,13.70
2023-03-05T07:40:53.155Z,14.57
2023-03-05T07:43:21.242Z,12.40
2023-03-05T07:45:49.309Z,17.37
2023-03-05T07:48:20.962Z,15.37
2023-03-05T07:50:49.815Z,14.53
2023-03-05T07:53:18.049Z,14.93
2023-03-05T07:55:48.579Z,16.17
2023-03-05T07:58:16.617Z,15.83
2023-03-05T08:00:44.656Z,17.07
2023-03-05T08:03:15.687Z,18.43
2023-03-05T08:05:44.167Z,20.00
2023-03-05T08:08:12.358Z,15.30
2023-03-05T08:10:41.062Z,18.67
2023-03-05T08:13:10.499Z,18.10
2023-03-05T08:15:39.329Z,17.27
2023-03-05T08:18:07.509Z,14.70
2023-03-05T08:20:36.438Z,13.27
2023-03-05T08:23:04.868Z,13.10
2023-03-05T08:25:33.310Z,14.17
2023-03-05T08:28:01.358Z,15.17
2023-03-05T08:30:31.060Z,16.20
2023-03-05T08:32:59.160Z,16.33
2023-03-05T08:35:27.718Z,13.77
2023-03-05T08:37:57.380Z,27.20
2023-03-05T08:40:25.568Z,20.87
2023-03-05T08:42:53.627Z,13.87
2023-03-05T08:45:21.790Z,12.37
2023-03-05T08:47:51.364Z,14.87
2023-03-05T08:50:19.730Z,16.50
2023-03-05T08:52:47.759Z,16.03
2023-03-05T08:55:43.217Z,12.60
2023-03-05T08:58:12.221Z,16.03
2023-03-05T09:00:41.096Z,19.87
2023-03-05T09:03:11.169Z,14.93
2023-03-05T09:05:39.516Z,12.70
2023-03-05T09:08:07.656Z,15.97
2023-03-05T09:10:35.716Z,15.37
2023-03-05T09:13:04.314Z,16.57
2023-03-05T09:15:32.901Z,15.03
2023-03-05T09:18:01.287Z,13.83
2023-03-05T09:20:30.831Z,14.90
2023-03-05T09:22:59.246Z,13.67
2023-03-05T09:25:27.825Z,15.53
2023-03-05T09:27:56.041Z,13.97
2023-03-05T09:30:24.365Z,15.83
2023-03-05T09:32:52.570Z,13.20
2023-03-05T09:35:20.785Z,16.70
2023-03-05T09:37:50.281Z,16.13
2023-03-05T09:40:20.681Z,16.93
2023-03-05T09:43:03.611Z,14.97
2023-03-05T09:45:39.354Z,21.57
2023-03-05T09:48:17.905Z,17.60
2023-03-05T09:50:50.515Z,16.60
2023-03-05T09:56:32.829Z,16.90
2023-03-05T09:59:15.272Z,19.83
2023-03-05T10:01:44.978Z,16.43
2023-03-05T10:04:17.752Z,15.27
2023-03-05T10:06:54.301Z,14.13
2023-03-05T10:09:44.280Z,19.70
2023-03-05T10:12:25.251Z,19.10
2023-03-05T10:14:53.565Z,21.43
2023-03-05T10:17:45.818Z,17.63
2023-03-05T10:20:42.534Z,14.37
2023-03-05T10:23:31.182Z,17.20
2023-03-05T10:26:19.448Z,19.33
2023-03-05T10:28:58.689Z,17.97
2023-03-05T10:31:54.166Z,16.53
2023-03-05T10:34:57.988Z,14.50
2023-03-05T10:38:19.269Z,15.83
2023-03-05T10:40:52.089Z,13.83
2023-03-05T10:43:30.632Z,12.07
2023-03-05T10:45:59.739Z,20.20
2023-03-05T10:48:36.644Z,17.17
2023-03-05T10:51:14.445Z,14.23
2023-03-05T10:53:55.898Z,12.57
2023-03-05T10:56:26.534Z,15.43
2023-03-05T10:58:56.366Z,14.90
2023-03-05T11:01:28.093Z,15.63
2023-03-05T11:03:59.518Z,16.33
2023-03-05T11:06:38.737Z,17.33
2023-03-05T11:09:28.210Z,16.53
2023-03-05T11:12:17.025Z,18.97
2023-03-05T11:15:02.957Z,17.53
2023-03-05T11:17:34.330Z,17.70
2023-03-05T11:20:35.355Z,16.97
2023-03-05T11:23:06.841Z,16.53
2023-03-05T11:25:36.404Z,20.10
2023-03-05T11:28:05.180Z,15.47
2023-03-05T11:30:37.555Z,14.50
2023-03-05T11:33:11.355Z,19.10
2023-03-05T11:35:42.055Z,20.00
2023-03-05T11:38:20.367Z,20.60
2023-03-05T11:40:49.458Z,21.27
2023-03-05T11:43:21.127Z,23.03
2023-03-05T11:45:53.839Z,19.37
2023-03-05T11:48:28.245Z,21.83
2023-03-05T11:51:02.070Z,24.70
2023-03-05T11:53:33.162Z,19.50
2023-03-05T11:56:12.694Z,19.77
2023-03-05T11:58:47.442Z,17.50
2023-03-05T12:01:20.666Z,18.60
2023-03-05T12:03:50.269Z,20.60
2023-03-05T12:06:27.379Z,18.30
2023-03-05T12:08:58.933Z,16.70
2023-03-05T12:11:31.618Z,19.37
2023-03-05T12:14:12.867Z,18.50
2023-03-05T12:16:47.907Z,20.63
2023-03-05T12:19:38.752Z,18.93
2023-03-05T12:22:17.238Z,24.43
2023-03-05T12:24:45.482Z,23.73
2023-03-05T12:27:18.305Z,16.60
2023-03-05T12:29:50.467Z,22.60
2023-03-05T12:32:57.132Z,20.50
2023-03-05T12:35:35.918Z,18.43
2023-03-05T12:38:31.853Z,17.70
2023-03-05T12:41:39.500Z,22.20
2023-03-05T12:44:22.258Z,15.97
2023-03-05T12:47:23.412Z,15.73
2023-03-05T12:49:53.249Z,14.47
2023-03-05T12:52:28.113Z,13.70
2023-03-05T12:55:17.448Z,13.90
2023-03-05T12:57:48.450Z,14.10
2023-03-05T13:00:23.804Z,14.10
2023-03-05T13:02:58.004Z,14.60
2023-03-05T13:05:32.713Z,13.80
2023-03-05T13:08:23.980Z,10.70
2023-03-05T13:10:56.569Z,18.60
2023-03-05T13:13:26.587Z,16.27
2023-03-05T13:15:55.029Z,14.37
2023-03-05T13:18:26.854Z,13.00
2023-03-05T13:21:05.691Z,12.03
2023-03-05T13:23:35.350Z,16.33
2023-03-05T13:26:15.174Z,12.80
2023-03-05T13:28:45.386Z,16.20
2023-03-05T13:31:18.470Z,12.77
2023-03-05T13:33:56.817Z,15.83
2023-03-05T13:36:28.730Z,15.17
2023-03-05T13:38:57.112Z,20.57
2023-03-05T13:41:27.173Z,17.30
2023-03-05T13:43:58.164Z,14.30
2023-03-05T13:46:32.500Z,13.93
2023-03-05T13:49:20.344Z,13.13
2023-03-05T13:51:52.495Z,12.80
2023-03-05T13:54:22.397Z,17.17
2023-03-05T13:56:54.245Z,16.00
2023-03-05T13:59:25.032Z,17.37
2023-03-05T14:01:54.722Z,20.83
2023-03-05T14:04:26.648Z,17.43
2023-03-05T14:07:01.205Z,15.83
2023-03-05T14:09:32.176Z,15.47
2023-03-05T14:12:04.497Z,16.50
2023-03-05T14:14:38.031Z,17.67
2023-03-05T14:17:39.967Z,16.07
2023-03-05T14:20:23.579Z,17.73
2023-03-05T14:22:57.071Z,17.27
2023-03-05T14:25:38.392Z,25.23
2023-03-05T14:28:20.930Z,18.57
2023-03-05T14:30:52.567Z,16.67
2023-03-05T14:33:25.933Z,17.90
2023-03-05T14:35:54.488Z,15.63
2023-03-05T14:38:28.654Z,15.80
2023-03-05T14:40:57.304Z,15.67
2023-03-05T14:43:25.497Z,16.77
2023-03-05T14:45:53.852Z,17.93
2023-03-05T14:48:21.950Z,21.10
2023-03-05T14:50:57.218Z,16.33
2023-03-05T14:53:34.892Z,19.87
2023-03-05T14:56:03.320Z,16.87
2023-03-05T14:58:35.619Z,18.00
2023-03-05T15:01:04.264Z,18.03
2023-03-05T15:03:32.970Z,17.73
2023-03-05T15:06:01.133Z,15.73
2023-03-05T15:08:33.275Z,17.57
2023-03-05T15:11:02.253Z,16.43
2023-03-05T15:13:31.891Z,15.87
2023-03-05T15:16:00.358Z,19.20
2023-03-05T15:18:28.827Z,16.17
2023-03-05T15:20:58.083Z,19.63
2023-03-05T15:23:26.369Z,17.73
2023-03-05T15:25:55.923Z,16.53
2023-03-05T15:28:24.464Z,18.93
2023-03-05T15:30:52.659Z,16.47
2023-03-05T15:33:20.681Z,14.03
2023-03-05T15:35:48.766Z,16.47
2023-03-05T15:38:17.276Z,15.37
2023-03-05T15:40:47.023Z,17.20
2023-03-05T15:43:16.753Z,13.00
2023-03-05T15:45:44.992Z,14.67
2023-03-05T15:48:13.632Z,15.87
2023-03-05T15:50:43.352Z,16.50
2023-03-05T15:53:16.172Z,13.97
2023-03-05T15:55:45.822Z,15.43
2023-03-05T15:58:17.548Z,14.27
2023-03-05T16:00:47.546Z,13.53
2023-03-05T16:03:16.224Z,14.53
2023-03-05T16:05:44.486Z,16.13
2023-03-05T16:08:12.809Z,17.13
2023-03-05T16:10:41.885Z,14.60
2023-03-05T16:13:17.385Z,13.43
2023-03-05T16:15:53.183Z,21.70
2023-03-05T16:18:22.684Z,20.27
2023-03-05T16:20:51.229Z,16.20
2023-03-05T16:23:20.015Z,18.67
2023-03-05T16:25:48.480Z,18.47
2023-03-05T16:28:20.190Z,17.80
2023-03-05T16:30:55.284Z,17.93
2023-03-05T16:33:23.588Z,22.07
2023-03-05T16:35:57.442Z,17.73
2023-03-05T16:38:26.399Z,16.60
2023-03-05T16:41:07.844Z,18.80
2023-03-05T16:43:36.763Z,15.10
2023-03-05T16:46:06.583Z,18.10
2023-03-05T16:48:35.748Z,16.77
2023-03-05T16:51:05.781Z,16.27
2023-03-05T16:53:34.132Z,17.73
2023-03-05T16:56:05.482Z,15.53
2023-03-05T16:58:34.807Z,19.20
2023-03-05T17:01:03.860Z,17.83
2023-03-05T17:03:33.558Z,24.57
2023-03-05T17:06:01.765Z,26.93
2023-03-05T17:08:29.770Z,23.17
2023-03-05T17:10:57.985Z,22.80
2023-03-05T17:13:26.149Z,24.80
2023-03-05T17:15:56.954Z,24.33
2023-03-05T17:18:26.062Z,28.60
2023-03-05T17:20:55.708Z,27.03
2023-03-05T17:23:24.594Z,18.87
2023-03-05T17:25:52.784Z,18.70
2023-03-05T17:28:21.476Z,15.23
2023-03-05T17:30:49.848Z,19.00
2023-03-05T17:33:18.086Z,22.03
2023-03-05T17:35:47.799Z,24.27
2023-03-05T17:38:18.432Z,19.83
2023-03-05T17:40:46.711Z,23.50
2023-03-05T17:43:14.918Z,21.17
2023-03-05T17:45:43.869Z,23.50
2023-03-05T17:48:12.817Z,236.43
2023-03-05T17:50:41.902Z,161.63
2023-03-05T17:53:10.489Z,146.70
2023-03-05T17:55:43.653Z,173.63
2023-03-05T17:58:11.923Z,80.23
2023-03-05T18:00:40.201Z,37.77
2023-03-05T18:03:12.370Z,30.37
2023-03-05T18:05:40.938Z,33.00
2023-03-05T18:08:10.608Z,45.50
2023-03-05T18:10:40.106Z,41.80
2023-03-05T18:13:08.121Z,30.80
2023-03-05T18:15:37.236Z,19.00
2023-03-05T18:18:05.656Z,23.00
2023-03-05T18:20:37.262Z,20.70
2023-03-05T18:23:06.591Z,19.73
2023-03-05T18:25:35.325Z,19.13
2023-03-05T18:28:08.519Z,22.47
2023-03-05T18:30:37.806Z,21.37
2023-03-05T18:33:06.244Z,24.03
2023-03-05T18:35:35.221Z,19.13
2023-03-05T18:38:03.546Z,20.87
2023-03-05T18:40:35.801Z,19.07
2023-03-05T18:43:05.416Z,16.43
2023-03-05T18:45:34.329Z,24.97
2023-03-05T18:48:02.502Z,23.63
2023-03-05T18:50:31.500Z,22.13
2023-03-05T18:52:59.659Z,18.17
2023-03-05T18:55:30.517Z,17.30
2023-03-05T18:57:59.042Z,17.97
2023-03-05T19:00:31.691Z,15.10
2023-03-05T19:02:59.946Z,19.33
2023-03-05T19:05:29.196Z,18.13
2023-03-05T19:07:57.512Z,21.20
2023-03-05T19:10:26.592Z,15.97
2023-03-05T19:13:05.534Z,16.50
2023-03-05T19:15:35.265Z,19.43
2023-03-05T19:18:03.286Z,14.90
2023-03-05T19:20:31.399Z,15.63
2023-03-05T19:22:59.427Z,15.60
2023-03-05T19:25:27.495Z,18.27
2023-03-05T19:27:55.992Z,19.37
2023-03-05T19:30:24.291Z,20.63
2023-03-05T19:32:53.854Z,17.53
2023-03-05T19:35:22.209Z,16.00
2023-03-05T19:37:50.413Z,19.07
2023-03-05T19:40:19.203Z,13.57
2023-03-05T19:42:47.271Z,16.97
2023-03-05T19:45:15.636Z,15.77
2023-03-05T19:47:43.689Z,16.20
2023-03-05T19:50:16.223Z,16.27
2023-03-05T19:52:44.470Z,14.67
2023-03-05T19:55:13.204Z,19.33
2023-03-05T19:57:41.335Z,14.37
2023-03-05T20:00:14.600Z,14.30
2023-03-05T20:02:42.644Z,13.90
2023-03-05T20:05:11.276Z,12.13
2023-03-05T20:07:40.665Z,16.20
2023-03-05T20:10:10.759Z,15.47
2023-03-05T20:12:39.197Z,10.63
2023-03-05T20:15:08.579Z,15.00
2023-03-05T20:17:36.687Z,18.90
2023-03-05T20:20:07.365Z,23.53
2023-03-05T20:22:35.542Z,20.13
2023-03-05T20:25:06.769Z,17.63
2023-03-05T20:27:35.270Z,17.70
2023-03-05T20:30:03.295Z,13.67
2023-03-05T20:32:31.790Z,15.43
2023-03-05T20:34:59.913Z,16.03
2023-03-05T20:37:39.890Z,15.60
2023-03-05T20:40:11.740Z,22.20
2023-03-05T20:42:40.014Z,16.70
2023-03-05T20:45:09.744Z,18.10
2023-03-05T20:47:40.826Z,16.10
2023-03-05T20:50:10.925Z,16.37
2023-03-05T20:52:39.986Z,14.50
2023-03-05T20:55:10.743Z,13.10
2023-03-05T20:57:39.245Z,13.53
2023-03-05T21:00:09.481Z,14.33
2023-03-05T21:02:37.698Z,16.83
2023-03-05T21:05:07.430Z,11.50
2023-03-05T21:07:35.963Z,18.67
2023-03-05T21:10:05.803Z,20.20
2023-03-05T21:12:35.640Z,15.10
2023-03-05T21:15:03.835Z,11.57
2023-03-05T21:17:31.854Z,15.57
2023-03-05T21:20:00.232Z,15.10
2023-03-05T21:22:28.486Z,14.40
2023-03-05T21:25:03.347Z,14.47
2023-03-05T21:27:31.485Z,16.70
2023-03-05T21:30:01.195Z,14.77
2023-03-05T21:32:29.700Z,17.23
2023-03-05T21:34:59.391Z,16.40
2023-03-05T21:37:28.615Z,18.17
2023-03-05T21:39:56.664Z,18.20
2023-03-05T21:42:25.073Z,16.07
2023-03-05T21:44:55.009Z,15.20
2023-03-05T21:47:24.455Z,15.17
2023-03-05T21:49:52.911Z,16.43
2023-03-05T21:52:22.323Z,17.07
2023-03-05T21:54:50.327Z,16.83
2023-03-05T21:57:18.617Z,14.07
2023-03-05T21:59:46.724Z,17.77
2023-03-05T22:02:16.808Z,15.70
2023-03-05T22:04:47.374Z,16.07
2023-03-05T22:07:17.096Z,13.67
2023-03-05T22:09:45.473Z,19.63
2023-03-05T22:12:20.139Z,16.53
2023-03-05T22:14:48.317Z,14.90
2023-03-05T22:17:16.390Z,15.37
2023-03-05T22:19:45.717Z,15.57
2023-03-05T22:22:13.901Z,17.27
2023-03-05T22:24:41.973Z,15.50
2023-03-05T22:27:10.529Z,18.03
2023-03-05T22:29:38.932Z,16.80
2023-03-05T22:32:07.565Z,16.47
2023-03-05T22:34:37.502Z,16.23
2023-03-05T22:37:07.091Z,17.47
2023-03-05T22:39:35.321Z,16.70
2023-03-05T22:42:03.373Z,17.77
2023-03-05T22:44:31.497Z,17.87
2023-03-05T22:46:59.593Z,17.20
2023-03-05T22:49:27.889Z,13.53
2023-03-05T22:51:55.936Z,15.57
2023-03-05T22:54:25.501Z,16.90
2023-03-05T22:56:53.764Z,14.33
2023-03-05T22:59:21.876Z,17.30
2023-03-05T23:01:50.095Z,14.00
2023-03-05T23:04:28.988Z,18.10
2023-03-05T23:06:57.295Z,15.63
2023-03-05T23:09:27.151Z,16.13
2023-03-05T23:11:55.429Z,15.07
2023-03-05T23:14:23.632Z,13.53
2023-03-05T23:16:51.832Z,22.60
2023-03-05T23:19:20.146Z,16.07
2023-03-05T23:21:48.417Z,12.13
2023-03-05T23:24:16.724Z,18.07
2023-03-05T23:26:46.608Z,14.23
2023-03-05T23:29:15.229Z,13.90
2023-03-05T23:31:43.688Z,14.40
2023-03-05T23:34:11.867Z,13.33
2023-03-05T23:36:40.585Z,16.03
2023-03-05T23:39:08.792Z,11.83
2023-03-05T23:41:37.433Z,15.17
2023-03-05T23:44:07.268Z,11.70
2023-03-05T23:46:35.626Z,14.67
2023-03-05T23:49:03.916Z,13.73
2023-03-05T23:51:32.138Z,13.17
2023-03-05T23:54:00.596Z,9.80
2023-03-05T23:56:29.016Z,10.50
2023-03-05T23:59:00.515Z,12.30
